Time;durP1;ratioP1;P1;durP2;ratioP2;P2;SDS_P1;SDS_P2;PMS_P1;PMS_P2;Temp;Humidity;BMP_temperature;BMP_pressure;BME280_temperature;BME280_humidity;BME280_pressure;Samples;Min_cycle;Max_cycle;Signal;HPM_P1;HPM_P2
2022/01/09 00:01:04;;;;;;;5.93;3.50;;;;;;;;;;6312949;28;20188;-75
2022/01/09 00:04:11;;;;;;;3.73;3.40;;;;;;;;;;6311745;28;20283;-75
2022/01/09 00:07:17;;;;;;;6.50;3.63;;;;;;;;;;6311680;28;20377;-75
2022/01/09 00:10:22;;;;;;;4.00;3.70;;;;;;;;;;6312068;28;20255;-75
2022/01/09 00:13:27;;;;;;;4.07;3.40;;;;;;;;;;6311435;28;20234;-74
2022/01/09 00:16:31;;;;;;;3.70;3.40;;;;;;;;;;6312792;28;20194;-75
2022/01/09 00:19:40;;;;;;;5.07;3.43;;;;;;;;;;6311978;28;20245;-74
2022/01/09 00:22:47;;;;;;;6.27;3.97;;;;;;;;;;6311874;28;20305;-74
2022/01/09 00:25:52;;;;;;;3.90;3.60;;;;;;;;;;6311434;28;20525;-74
2022/01/09 00:28:56;;;;;;;3.50;3.30;;;;;;;;;;6311682;28;20230;-74
2022/01/09 00:32:00;;;;;;;3.80;3.60;;;;;;;;;;6311086;28;20408;-74
2022/01/09 00:35:06;;;;;;;3.93;3.70;;;;;;;;;;6311195;28;20524;-75
2022/01/09 00:38:15;;;;;;;3.43;3.33;;;;;;;;;;6311687;28;20230;-74
2022/01/09 00:41:19;;;;;;;4.33;3.93;;;;;;;;;;6312187;28;20191;-74
2022/01/09 00:44:23;;;;;;;4.30;3.77;;;;;;;;;;6311007;28;20451;-75
2022/01/09 00:47:28;;;;;;;4.43;3.40;;;;;;;;;;6311692;28;20277;-75
2022/01/09 00:50:36;;;;;;;4.40;4.00;;;;;;;;;;6312333;28;20462;-74
2022/01/09 00:53:41;;;;;;;5.73;3.60;;;;;;;;;;6310653;28;20434;-74
2022/01/09 00:56:45;;;;;;;4.10;3.80;;;;;;;;;;6312001;28;20254;-75
2022/01/09 00:59:50;;;;;;;3.73;3.43;;;;;;;;;;6311077;28;20237;-74
2022/01/09 01:02:54;;;;;;;7.23;4.40;;;;;;;;;;6311606;28;20236;-74
2022/01/09 01:05:59;;;;;;;4.60;3.70;;;;;;;;;;6311499;28;20187;-74
2022/01/09 01:09:04;;;;;;;5.90;4.03;;;;;;;;;;6311211;28;20241;-74
2022/01/09 01:12:10;;;;;;;3.80;3.60;;;;;;;;;;6311606;28;20239;-75
2022/01/09 01:15:14;;;;;;;3.87;3.50;;;;;;;;;;6310786;28;20423;-75
2022/01/09 01:18:20;;;;;;;3.83;3.63;;;;;;;;;;6310943;28;20230;-75
2022/01/09 01:21:25;;;;;;;4.43;4.13;;;;;;;;;;6312052;28;20189;-75
2022/01/09 01:24:35;;;;;;;4.17;3.80;;;;;;;;;;6311362;28;20244;-75
2022/01/09 01:27:40;;;;;;;4.60;4.17;;;;;;;;;;6310523;28;20186;-75
2022/01/09 01:30:44;;;;;;;7.50;4.10;;;;;;;;;;6311140;28;20249;-75
2022/01/09 01:33:47;;;;;;;4.93;4.23;;;;;;;;;;6310921;28;20232;-74
2022/01/09 01:36:52;;;;;;;4.23;3.93;;;;;;;;;;6310412;28;20377;-75
2022/01/09 01:39:57;;;;;;;4.60;4.20;;;;;;;;;;6310464;28;20540;-75
2022/01/09 01:43:02;;;;;;;8.60;4.50;;;;;;;;;;6310768;28;20234;-75
2022/01/09 01:46:07;;;;;;;4.87;4.43;;;;;;;;;;6310429;28;20433;-74
2022/01/09 01:49:13;;;;;;;5.30;4.37;;;;;;;;;;6310805;28;20231;-74
2022/01/09 01:52:25;;;;;;;9.73;4.30;;;;;;;;;;6311618;28;20219;-75
2022/01/09 01:55:36;;;;;;;5.00;4.47;;;;;;;;;;6310618;28;20399;-75
2022/01/09 01:58:40;;;;;;;6.53;4.43;;;;;;;;;;6314712;28;20233;-75
2022/01/09 02:01:44;;;;;;;6.03;5.17;;;;;;;;;;6297847;28;20260;-74
2022/01/09 02:04:49;;;;;;;7.20;4.97;;;;;;;;;;6315074;28;20229;-75
2022/01/09 02:07:53;;;;;;;6.33;5.10;;;;;;;;;;6315357;28;20303;-75
2022/01/09 02:10:58;;;;;;;8.27;5.10;;;;;;;;;;6314682;28;20218;-75
2022/01/09 02:14:02;;;;;;;5.93;5.30;;;;;;;;;;6314053;28;20234;-76
2022/01/09 02:17:07;;;;;;;11.40;5.83;;;;;;;;;;6315142;28;20288;-75
2022/01/09 02:20:14;;;;;;;12.27;5.37;;;;;;;;;;6314867;28;20289;-75
2022/01/09 02:23:19;;;;;;;7.03;5.70;;;;;;;;;;6313798;28;20441;-76
2022/01/09 02:26:24;;;;;;;9.87;5.77;;;;;;;;;;6314924;28;20237;-75
2022/01/09 02:29:29;;;;;;;7.33;5.47;;;;;;;;;;6314328;28;20237;-75
2022/01/09 02:32:33;;;;;;;7.53;5.30;;;;;;;;;;6313090;28;20411;-75
2022/01/09 02:35:39;;;;;;;8.33;5.37;;;;;;;;;;6315119;28;20187;-75
2022/01/09 02:38:44;;;;;;;15.53;6.77;;;;;;;;;;6314463;28;20230;-75
2022/01/09 02:41:48;;;;;;;8.67;5.30;;;;;;;;;;6314684;28;20195;-75
2022/01/09 02:44:53;;;;;;;8.23;5.63;;;;;;;;;;6313839;28;20414;-75
2022/01/09 02:47:59;;;;;;;18.30;5.47;;;;;;;;;;6313317;28;20230;-76
2022/01/09 02:51:06;;;;;;;9.67;5.97;;;;;;;;;;6314266;28;20220;-75
2022/01/09 02:57:28;;;;;;;16.33;5.67;;;;;;;;;;6313174;28;20210;-75
2022/01/09 03:00:34;;;;;;;14.17;6.03;;;;;;;;;;6314500;28;20249;-75
2022/01/09 03:03:38;;;;;;;7.70;5.03;;;;;;;;;;6313803;28;20236;-76
2022/01/09 03:06:44;;;;;;;6.70;5.17;;;;;;;;;;6312875;28;20223;-75
2022/01/09 03:09:48;;;;;;;7.23;5.57;;;;;;;;;;6313358;28;20235;-75
2022/01/09 03:12:55;;;;;;;12.87;6.10;;;;;;;;;;6313279;28;20234;-75
2022/01/09 03:16:01;;;;;;;13.47;5.90;;;;;;;;;;6313788;28;20188;-75
2022/01/09 03:19:05;;;;;;;12.53;5.97;;;;;;;;;;6312816;28;20233;-75
2022/01/09 03:22:15;;;;;;;9.07;5.47;;;;;;;;;;6314200;28;20268;-76
2022/01/09 03:25:20;;;;;;;8.90;5.77;;;;;;;;;;6312858;28;20233;-76
2022/01/09 03:28:24;;;;;;;7.70;5.23;;;;;;;;;;6313316;28;20265;-75
2022/01/09 03:31:28;;;;;;;10.07;5.43;;;;;;;;;;6312617;28;20246;-75
2022/01/09 03:34:33;;;;;;;7.07;5.20;;;;;;;;;;6312847;28;20256;-76
2022/01/09 03:37:38;;;;;;;11.63;5.87;;;;;;;;;;6312864;28;20299;-75
2022/01/09 03:40:43;;;;;;;10.33;5.37;;;;;;;;;;6312568;28;20261;-75
2022/01/09 03:43:47;;;;;;;9.17;5.53;;;;;;;;;;6312009;28;20237;-75
2022/01/09 03:46:51;;;;;;;9.70;5.13;;;;;;;;;;6311929;28;20413;-75
2022/01/09 03:49:55;;;;;;;7.40;5.00;;;;;;;;;;6312227;28;20295;-75
2022/01/09 03:53:03;;;;;;;8.60;4.77;;;;;;;;;;6312505;28;20238;-75
2022/01/09 03:56:08;;;;;;;8.97;5.20;;;;;;;;;;6312864;28;20186;-75
2022/01/09 03:59:12;;;;;;;6.23;5.60;;;;;;;;;;6311814;28;20456;-75
2022/01/09 04:02:16;;;;;;;6.93;4.57;;;;;;;;;;6311691;28;20193;-75
2022/01/09 04:05:21;;;;;;;13.30;5.30;;;;;;;;;;6311788;28;20461;-75
2022/01/09 04:08:26;;;;;;;6.37;4.93;;;;;;;;;;6312390;28;20313;-75
2022/01/09 04:11:35;;;;;;;7.43;4.70;;;;;;;;;;6311412;28;20421;-75
2022/01/09 04:14:39;;;;;;;9.27;4.60;;;;;;;;;;6311994;28;20348;-75
2022/01/09 04:17:51;;;;;;;6.80;4.90;;;;;;;;;;6312236;28;20237;-75
2022/01/09 04:20:56;;;;;;;8.10;4.47;;;;;;;;;;6311899;28;20186;-75
2022/01/09 04:24:01;;;;;;;7.20;4.40;;;;;;;;;;6311753;28;20275;-75
2022/01/09 04:27:06;;;;;;;4.73;4.27;;;;;;;;;;6311994;28;20185;-75
2022/01/09 04:30:17;;;;;;;5.87;3.83;;;;;;;;;;6311398;28;20260;-76
2022/01/09 04:33:20;;;;;;;5.63;4.10;;;;;;;;;;6311288;28;20233;-75
2022/01/09 04:36:28;;;;;;;8.20;4.00;;;;;;;;;;6311208;28;20217;-75
2022/01/09 04:39:34;;;;;;;5.13;4.47;;;;;;;;;;6311318;28;20245;-75
2022/01/09 04:42:42;;;;;;;8.37;5.10;;;;;;;;;;6311877;28;20190;-76
2022/01/09 04:45:46;;;;;;;8.30;5.07;;;;;;;;;;6312399;28;20217;-75
2022/01/09 04:48:53;;;;;;;4.20;3.77;;;;;;;;;;6311195;28;20308;-75
2022/01/09 04:51:58;;;;;;;5.90;4.03;;;;;;;;;;6310923;28;20214;-75
2022/01/09 04:55:05;;;;;;;6.87;4.70;;;;;;;;;;6311396;28;20232;-75
2022/01/09 04:58:11;;;;;;;7.50;4.10;;;;;;;;;;6311633;28;20234;-76
2022/01/09 05:01:15;;;;;;;10.50;4.37;;;;;;;;;;6311928;28;20186;-75
2022/01/09 05:04:19;;;;;;;8.30;4.10;;;;;;;;;;6311326;28;20284;-76
2022/01/09 05:07:23;;;;;;;8.27;4.43;;;;;;;;;;6310344;28;20504;-76
2022/01/09 05:10:29;;;;;;;8.07;4.60;;;;;;;;;;6310830;28;20501;-76
2022/01/09 05:13:35;;;;;;;7.07;4.03;;;;;;;;;;6310598;28;20238;-76
2022/01/09 05:16:42;;;;;;;4.57;3.90;;;;;;;;;;6310678;28;20532;-76
2022/01/09 05:19:48;;;;;;;5.17;4.00;;;;;;;;;;6311155;28;20265;-74
2022/01/09 05:22:52;;;;;;;5.63;4.07;;;;;;;;;;6311438;28;20232;-74
2022/01/09 05:25:58;;;;;;;10.03;4.73;;;;;;;;;;6311597;28;20219;-75
2022/01/09 05:29:02;;;;;;;8.93;4.57;;;;;;;;;;6310442;28;20251;-75
2022/01/09 05:32:09;;;;;;;11.70;4.77;;;;;;;;;;6313602;28;20237;-75
2022/01/09 05:35:14;;;;;;;13.20;4.77;;;;;;;;;;6315705;28;20238;-75
2022/01/09 05:38:20;;;;;;;11.77;4.87;;;;;;;;;;6314899;28;20377;-75
2022/01/09 05:41:26;;;;;;;11.07;5.57;;;;;;;;;;6315033;28;20413;-74
2022/01/09 05:44:32;;;;;;;10.10;5.30;;;;;;;;;;6315261;28;20264;-74
2022/01/09 05:47:36;;;;;;;10.77;4.90;;;;;;;;;;6314354;28;20194;-75
2022/01/09 05:50:40;;;;;;;6.77;4.77;;;;;;;;;;6314891;28;20500;-75
2022/01/09 05:53:44;;;;;;;6.70;4.83;;;;;;;;;;6314650;28;20256;-75
2022/01/09 05:56:52;;;;;;;13.30;5.20;;;;;;;;;;6314676;28;20437;-75
2022/01/09 05:59:56;;;;;;;7.00;4.70;;;;;;;;;;6314389;28;20240;-74
2022/01/09 06:03:00;;;;;;;9.60;4.90;;;;;;;;;;6315220;28;20240;-75
2022/01/09 06:06:05;;;;;;;10.97;5.20;;;;;;;;;;6314572;28;20258;-74
2022/01/09 06:09:10;;;;;;;10.40;5.27;;;;;;;;;;6314650;28;20237;-75
2022/01/09 06:12:16;;;;;;;7.30;4.65;;;;;;;;;;6315497;28;20191;-75
2022/01/09 06:15:23;;;;;;;9.20;5.10;;;;;;;;;;6314626;28;20241;-75
2022/01/09 06:18:27;;;;;;;8.77;4.50;;;;;;;;;;6314027;28;20238;-75
2022/01/09 06:21:32;;;;;;;8.43;3.93;;;;;;;;;;6314095;28;20186;-75
2022/01/09 06:24:35;;;;;;;5.33;4.00;;;;;;;;;;6314132;28;20397;-75
2022/01/09 06:27:42;;;;;;;6.27;4.67;;;;;;;;;;6314767;28;20209;-75
2022/01/09 06:30:46;;;;;;;7.80;5.10;;;;;;;;;;6313441;28;20496;-75
2022/01/09 06:33:50;;;;;;;7.03;4.77;;;;;;;;;;6314486;28;20237;-75
2022/01/09 06:36:54;;;;;;;7.23;4.60;;;;;;;;;;6314764;28;20186;-74
2022/01/09 06:39:58;;;;;;;10.43;4.10;;;;;;;;;;6313678;28;20434;-74
2022/01/09 06:43:04;;;;;;;12.70;4.57;;;;;;;;;;6313883;28;20245;-74
2022/01/09 06:46:10;;;;;;;8.40;5.07;;;;;;;;;;6313496;28;20496;-75
2022/01/09 06:49:14;;;;;;;7.60;4.47;;;;;;;;;;6313627;28;20237;-75
2022/01/09 06:52:19;;;;;;;9.40;4.60;;;;;;;;;;6313392;28;20377;-75
2022/01/09 06:55:27;;;;;;;9.67;4.40;;;;;;;;;;6313194;28;20563;-75
2022/01/09 06:58:32;;;;;;;12.10;4.23;;;;;;;;;;6314097;28;20301;-74
2022/01/09 07:01:36;;;;;;;7.33;4.40;;;;;;;;;;6313182;28;20472;-75
2022/01/09 07:04:40;;;;;;;6.33;4.30;;;;;;;;;;6312968;28;20233;-75
2022/01/09 07:07:45;;;;;;;8.33;4.23;;;;;;;;;;6312705;28;20247;-75
2022/01/09 07:10:49;;;;;;;12.10;4.40;;;;;;;;;;6313946;28;20248;-75
2022/01/09 07:13:56;;;;;;;4.53;4.13;;;;;;;;;;6312821;28;20433;-75
2022/01/09 07:17:01;;;;;;;6.83;4.23;;;;;;;;;;6313823;28;20263;-74
2022/01/09 07:20:07;;;;;;;7.97;4.00;;;;;;;;;;6313481;28;20245;-75
2022/01/09 07:23:15;;;;;;;6.17;4.10;;;;;;;;;;6313165;28;20243;-75
2022/01/09 07:26:19;;;;;;;6.17;4.23;;;;;;;;;;6313292;28;20193;-75
2022/01/09 07:29:25;;;;;;;8.97;4.87;;;;;;;;;;6313094;28;20300;-75
2022/01/09 07:32:29;;;;;;;8.03;4.10;;;;;;;;;;6312212;28;20313;-76
2022/01/09 07:35:34;;;;;;;4.23;3.93;;;;;;;;;;6312198;28;20585;-74
2022/01/09 07:38:38;;;;;;;8.50;4.67;;;;;;;;;;6312164;28;20520;-75
2022/01/09 07:41:43;;;;;;;8.47;4.73;;;;;;;;;;6312117;28;20186;-75
2022/01/09 07:44:49;;;;;;;7.03;4.43;;;;;;;;;;6312577;28;20241;-76
2022/01/09 07:47:53;;;;;;;4.70;4.30;;;;;;;;;;6312816;28;20301;-76
2022/01/09 07:50:57;;;;;;;6.23;4.70;;;;;;;;;;6312430;28;20219;-76
2022/01/09 07:54:01;;;;;;;8.40;4.60;;;;;;;;;;6311192;28;20301;-76
2022/01/09 07:57:06;;;;;;;9.70;4.50;;;;;;;;;;6311734;28;20367;-76
2022/01/09 08:00:16;;;;;;;11.53;5.23;;;;;;;;;;6312010;28;20268;-76
2022/01/09 08:03:22;;;;;;;7.20;5.10;;;;;;;;;;6312511;28;20237;-76
2022/01/09 08:06:27;;;;;;;9.60;5.03;;;;;;;;;;6312689;28;20185;-76
2022/01/09 08:09:31;;;;;;;12.87;5.73;;;;;;;;;;6311699;28;20231;-76
2022/01/09 08:12:36;;;;;;;12.33;4.73;;;;;;;;;;6311158;28;20186;-76
2022/01/09 08:15:42;;;;;;;7.17;5.23;;;;;;;;;;6312726;28;20220;-76
2022/01/09 08:18:46;;;;;;;11.63;5.17;;;;;;;;;;6311987;28;20230;-76
2022/01/09 08:21:50;;;;;;;10.07;5.57;;;;;;;;;;6312452;28;20197;-76
2022/01/09 08:24:54;;;;;;;9.80;6.20;;;;;;;;;;6311790;28;20269;-75
2022/01/09 08:27:58;;;;;;;10.00;5.67;;;;;;;;;;6310807;28;20537;-75
2022/01/09 08:31:03;;;;;;;12.80;6.30;;;;;;;;;;6311151;28;20528;-75
2022/01/09 08:34:08;;;;;;;9.00;5.77;;;;;;;;;;6311762;28;20234;-75
2022/01/09 08:37:13;;;;;;;10.87;5.70;;;;;;;;;;6312647;28;20193;-75
2022/01/09 08:40:22;;;;;;;12.63;6.40;;;;;;;;;;6311877;28;20249;-74
2022/01/09 08:43:26;;;;;;;12.53;5.73;;;;;;;;;;6312189;28;20229;-75
2022/01/09 08:46:32;;;;;;;9.23;5.70;;;;;;;;;;6311669;28;20189;-75
2022/01/09 08:49:36;;;;;;;13.37;5.63;;;;;;;;;;6312753;28;20238;-75
2022/01/09 08:52:41;;;;;;;9.47;5.20;;;;;;;;;;6310606;28;20452;-76
2022/01/09 08:55:46;;;;;;;11.17;6.57;;;;;;;;;;6312194;28;20259;-75
2022/01/09 08:58:50;;;;;;;9.23;5.97;;;;;;;;;;6309935;28;20533;-75
2022/01/09 09:02:16;;;;;;;16.60;6.27;;;;;;;;;;6311418;28;20281;-75
2022/01/09 09:05:20;;;;;;;9.87;6.17;;;;;;;;;;6312157;28;20189;-75
2022/01/09 09:08:24;;;;;;;9.07;6.10;;;;;;;;;;6316257;28;20233;-75
2022/01/09 09:11:28;;;;;;;13.97;6.07;;;;;;;;;;6316844;28;20186;-76
2022/01/09 09:14:33;;;;;;;10.47;5.93;;;;;;;;;;6316034;28;20213;-75
2022/01/09 09:17:38;;;;;;;9.93;5.97;;;;;;;;;;6316002;28;20256;-75
2022/01/09 09:20:44;;;;;;;11.23;5.73;;;;;;;;;;6315822;28;20187;-75
2022/01/09 09:23:48;;;;;;;11.37;5.90;;;;;;;;;;6315907;28;20237;-75
2022/01/09 09:26:52;;;;;;;10.27;5.83;;;;;;;;;;6314825;28;20635;-75
2022/01/09 09:29:57;;;;;;;9.40;6.23;;;;;;;;;;6315133;28;20207;-75
2022/01/09 09:33:05;;;;;;;14.10;6.20;;;;;;;;;;6315071;28;20254;-76
2022/01/09 09:36:12;;;;;;;12.50;6.33;;;;;;;;;;6315303;28;20221;-75
2022/01/09 09:39:16;;;;;;;12.17;6.47;;;;;;;;;;6315361;28;20530;-75
2022/01/09 09:42:22;;;;;;;8.50;5.93;;;;;;;;;;6315468;28;20281;-75
2022/01/09 09:45:26;;;;;;;11.93;6.20;;;;;;;;;;6314963;28;20387;-74
2022/01/09 09:48:31;;;;;;;12.10;4.77;;;;;;;;;;6315407;28;20537;-75
2022/01/09 09:51:35;;;;;;;8.07;4.67;;;;;;;;;;6315017;28;20234;-75
2022/01/09 09:54:39;;;;;;;4.70;4.30;;;;;;;;;;6314982;28;20193;-75
2022/01/09 09:57:43;;;;;;;7.80;4.87;;;;;;;;;;6313251;28;20278;-75
2022/01/09 10:00:52;;;;;;;7.80;4.47;;;;;;;;;;6314672;28;20428;-75
2022/01/09 10:04:00;;;;;;;9.40;4.70;;;;;;;;;;6315050;28;20502;-74
2022/01/09 10:07:06;;;;;;;9.33;4.87;;;;;;;;;;6295591;28;20207;-74
2022/01/09 10:10:14;;;;;;;10.67;5.17;;;;;;;;;;6315338;28;20339;-76
2022/01/09 10:13:22;;;;;;;10.03;4.80;;;;;;;;;;6316302;28;20288;-75
2022/01/09 10:16:27;;;;;;;12.67;4.60;;;;;;;;;;6314553;28;20370;-76
2022/01/09 10:19:46;;;;;;;9.27;4.63;;;;;;;;;;6315561;28;20236;-75
2022/01/09 10:22:52;;;;;;;13.70;5.83;;;;;;;;;;6316189;28;20223;-76
2022/01/09 10:26:10;;;;;;;9.10;4.93;;;;;;;;;;6316409;28;20232;-75
2022/01/09 10:29:15;;;;;;;8.57;5.00;;;;;;;;;;6316007;28;20293;-75
2022/01/09 10:32:20;;;;;;;5.07;4.40;;;;;;;;;;6315121;28;20232;-75
2022/01/09 10:35:26;;;;;;;7.80;4.83;;;;;;;;;;6316683;28;20296;-76
2022/01/09 10:38:31;;;;;;;5.40;4.93;;;;;;;;;;6316438;28;20283;-75
2022/01/09 10:41:51;;;;;;;5.73;5.13;;;;;;;;;;6315632;28;20244;-74
2022/01/09 10:44:55;;;;;;;6.43;5.27;;;;;;;;;;6315593;28;20303;-75
2022/01/09 10:48:06;;;;;;;5.53;5.00;;;;;;;;;;6314131;28;20588;-76
2022/01/09 10:51:14;;;;;;;5.17;4.50;;;;;;;;;;6313860;28;20184;-76
2022/01/09 10:54:30;;;;;;;9.60;5.07;;;;;;;;;;6314603;28;20231;-76
2022/01/09 10:57:39;;;;;;;8.97;5.53;;;;;;;;;;6314669;28;20261;-75
2022/01/09 11:01:08;;;;;;;7.63;5.43;;;;;;;;;;6297828;28;20212;-76
2022/01/09 11:04:13;;;;;;;5.90;5.23;;;;;;;;;;6312578;28;20401;-76
2022/01/09 11:07:19;;;;;;;12.53;5.33;;;;;;;;;;6314655;28;20197;-75
2022/01/09 11:10:23;;;;;;;11.33;5.23;;;;;;;;;;6313745;28;20542;-76
2022/01/09 11:13:31;;;;;;;12.60;4.93;;;;;;;;;;6313448;28;20564;-76
2022/01/09 11:16:38;;;;;;;9.33;4.63;;;;;;;;;;6313613;28;20211;-75
2022/01/09 11:19:44;;;;;;;5.47;4.93;;;;;;;;;;6313224;28;20235;-76
2022/01/09 11:22:50;;;;;;;5.93;4.73;;;;;;;;;;6312872;28;20383;-74
2022/01/09 11:25:58;;;;;;;6.00;4.93;;;;;;;;;;6312614;28;20365;-76
2022/01/09 11:29:06;;;;;;;7.47;4.80;;;;;;;;;;6313620;28;20230;-75
2022/01/09 11:32:26;;;;;;;5.33;4.33;;;;;;;;;;6316248;28;20230;-76
2022/01/09 11:35:39;;;;;;;8.53;5.43;;;;;;;;;;6313059;28;20333;-76
2022/01/09 11:38:52;;;;;;;6.77;5.00;;;;;;;;;;6312223;28;20232;-75
2022/01/09 11:42:08;;;;;;;5.07;4.53;;;;;;;;;;6312982;28;20587;-75
2022/01/09 11:45:14;;;;;;;5.10;4.70;;;;;;;;;;6312994;28;20517;-75
2022/01/09 11:48:42;;;;;;;4.80;4.43;;;;;;;;;;6313795;28;20387;-75
2022/01/09 11:51:51;;;;;;;8.53;5.03;;;;;;;;;;6314987;28;20208;-75
2022/01/09 11:54:58;;;;;;;6.40;5.10;;;;;;;;;;6313149;28;20256;-75
2022/01/09 11:58:03;;;;;;;5.80;4.80;;;;;;;;;;6315135;28;20211;-75
2022/01/09 12:01:07;;;;;;;4.30;3.90;;;;;;;;;;6313987;28;20252;-75
2022/01/09 12:05:00;;;;;;;5.77;3.57;;;;;;;;;;6313259;28;20289;-75
2022/01/09 12:08:09;;;;;;;3.97;3.73;;;;;;;;;;6317013;28;20191;-76
2022/01/09 12:11:23;;;;;;;3.70;3.50;;;;;;;;;;6299355;28;20235;-75
2022/01/09 12:14:55;;;;;;;4.07;3.77;;;;;;;;;;6311914;28;20529;-75
2022/01/09 12:18:03;;;;;;;4.10;3.20;;;;;;;;;;6311737;28;20517;-76
2022/01/09 12:21:46;;;;;;;4.90;3.70;;;;;;;;;;6311519;28;20294;-75
2022/01/09 12:24:51;;;;;;;3.33;3.10;;;;;;;;;;6311565;28;20234;-75
2022/01/09 12:27:57;;;;;;;3.27;2.97;;;;;;;;;;6312159;28;20190;-76
2022/01/09 12:31:01;;;;;;;4.77;3.10;;;;;;;;;;6310876;28;20537;-75
2022/01/09 12:34:12;;;;;;;7.90;2.90;;;;;;;;;;6310781;28;20494;-75
2022/01/09 12:37:19;;;;;;;3.20;3.00;;;;;;;;;;6312397;28;20212;-75
2022/01/09 12:40:24;;;;;;;3.20;3.00;;;;;;;;;;6310209;28;20242;-75
2022/01/09 12:43:30;;;;;;;5.53;3.63;;;;;;;;;;6311939;28;20198;-74
2022/01/09 12:46:35;;;;;;;5.67;3.30;;;;;;;;;;6311217;28;20325;-75
2022/01/09 12:49:39;;;;;;;2.90;2.80;;;;;;;;;;6311253;28;20336;-75
2022/01/09 12:52:45;;;;;;;2.90;2.70;;;;;;;;;;6312428;28;20233;-74
2022/01/09 12:55:57;;;;;;;4.13;2.70;;;;;;;;;;6311158;28;20227;-75
2022/01/09 12:59:05;;;;;;;4.73;3.50;;;;;;;;;;6310723;28;20246;-75
2022/01/09 13:02:13;;;;;;;3.33;3.13;;;;;;;;;;6310663;28;20250;-75
2022/01/09 13:05:21;;;;;;;3.20;3.10;;;;;;;;;;6310522;28;20525;-75
2022/01/09 13:08:27;;;;;;;2.77;2.57;;;;;;;;;;6311892;28;20333;-76
2022/01/09 13:11:32;;;;;;;2.70;2.60;;;;;;;;;;6310871;28;20522;-75
2022/01/09 13:14:44;;;;;;;6.03;3.70;;;;;;;;;;6310604;28;20230;-75
2022/01/09 13:17:51;;;;;;;3.37;2.90;;;;;;;;;;6311443;28;20212;-75
2022/01/09 13:21:11;;;;;;;6.13;3.13;;;;;;;;;;6311135;28;20234;-76
2022/01/09 13:24:18;;;;;;;3.83;3.10;;;;;;;;;;6310789;28;20236;-75
2022/01/09 13:27:23;;;;;;;3.93;3.33;;;;;;;;;;6311083;28;20222;-75
2022/01/09 13:30:27;;;;;;;6.87;3.57;;;;;;;;;;6310673;28;20295;-75
2022/01/09 13:33:31;;;;;;;3.67;3.37;;;;;;;;;;6311109;28;20554;-75
2022/01/09 13:36:41;;;;;;;3.37;3.17;;;;;;;;;;6310584;28;20287;-75
2022/01/09 13:39:50;;;;;;;3.87;3.57;;;;;;;;;;6310911;28;20237;-76
2022/01/09 13:42:54;;;;;;;3.63;3.43;;;;;;;;;;6311145;28;20187;-75
2022/01/09 13:46:11;;;;;;;3.93;3.57;;;;;;;;;;6310618;28;20251;-75
2022/01/09 13:49:16;;;;;;;3.77;3.57;;;;;;;;;;6309793;28;20400;-76
2022/01/09 13:52:22;;;;;;;5.23;4.10;;;;;;;;;;6312849;28;20258;-77
2022/01/09 13:55:30;;;;;;;4.07;3.83;;;;;;;;;;6314583;28;20538;-76
2022/01/09 13:58:35;;;;;;;4.90;4.37;;;;;;;;;;6314431;28;20251;-76
2022/01/09 14:01:50;;;;;;;3.90;3.60;;;;;;;;;;6315024;28;20399;-76
2022/01/09 14:05:10;;;;;;;7.13;4.13;;;;;;;;;;6314605;28;20247;-76
2022/01/09 14:08:17;;;;;;;6.37;4.13;;;;;;;;;;6314221;28;20375;-76
2022/01/09 14:11:22;;;;;;;4.63;3.80;;;;;;;;;;6314699;28;20254;-76
2022/01/09 14:14:30;;;;;;;6.27;3.93;;;;;;;;;;6316002;28;20291;-76
2022/01/09 14:17:36;;;;;;;4.83;4.13;;;;;;;;;;6317807;28;20275;-76
2022/01/09 14:20:42;;;;;;;3.97;3.60;;;;;;;;;;6316549;28;20258;-75
2022/01/09 14:23:57;;;;;;;4.10;3.80;;;;;;;;;;6313941;28;20240;-76
2022/01/09 14:27:04;;;;;;;4.73;3.53;;;;;;;;;;6316832;28;20218;-76
2022/01/09 14:30:22;;;;;;;4.00;3.60;;;;;;;;;;6315141;28;20521;-76
2022/01/09 14:33:28;;;;;;;3.23;3.07;;;;;;;;;;6315809;28;20238;-77
2022/01/09 14:36:35;;;;;;;5.40;4.20;;;;;;;;;;6314862;28;20238;-76
2022/01/09 14:39:40;;;;;;;3.73;3.40;;;;;;;;;;6313867;28;20287;-75
2022/01/09 14:42:45;;;;;;;3.67;3.33;;;;;;;;;;6314580;28;20194;-76
2022/01/09 14:45:51;;;;;;;3.83;3.47;;;;;;;;;;6313966;28;20234;-77
2022/01/09 14:48:56;;;;;;;3.53;3.30;;;;;;;;;;6312243;28;20230;-76
2022/01/09 14:52:01;;;;;;;3.33;3.13;;;;;;;;;;6313570;28;20240;-75
2022/01/09 14:55:08;;;;;;;3.07;2.83;;;;;;;;;;6312955;28;20545;-76
2022/01/09 14:58:17;;;;;;;3.30;3.13;;;;;;;;;;6296435;28;20233;-76
2022/01/09 15:01:22;;;;;;;3.67;3.37;;;;;;;;;;6313652;28;20234;-76
2022/01/09 15:04:26;;;;;;;2.77;2.67;;;;;;;;;;6317313;28;20214;-77
2022/01/09 15:07:30;;;;;;;3.83;2.93;;;;;;;;;;6313159;28;20241;-77
2022/01/09 15:10:36;;;;;;;5.13;3.03;;;;;;;;;;6313836;28;20228;-76
2022/01/09 15:13:42;;;;;;;3.83;3.57;;;;;;;;;;6314399;28;20187;-76
2022/01/09 15:16:46;;;;;;;4.57;3.27;;;;;;;;;;6313166;28;20249;-76
2022/01/09 15:19:50;;;;;;;3.30;3.10;;;;;;;;;;6314627;28;20213;-75
2022/01/09 15:22:54;;;;;;;4.50;3.30;;;;;;;;;;6314892;28;20224;-76
2022/01/09 15:25:58;;;;;;;4.00;3.70;;;;;;;;;;6312647;28;20356;-76
2022/01/09 15:29:04;;;;;;;3.97;3.17;;;;;;;;;;6313267;28;20236;-76
2022/01/09 15:32:12;;;;;;;5.97;3.50;;;;;;;;;;6313420;28;20242;-76
2022/01/09 15:35:16;;;;;;;3.80;3.43;;;;;;;;;;6315637;28;20232;-76
2022/01/09 15:38:21;;;;;;;3.47;3.17;;;;;;;;;;6315758;28;20211;-77
2022/01/09 15:41:31;;;;;;;4.47;3.70;;;;;;;;;;6312191;28;20253;-76
2022/01/09 15:44:37;;;;;;;4.40;3.90;;;;;;;;;;6313738;28;20371;-76
2022/01/09 15:47:42;;;;;;;3.40;3.17;;;;;;;;;;6313249;28;20245;-77
2022/01/09 15:50:46;;;;;;;3.70;3.50;;;;;;;;;;6312186;28;20528;-76
2022/01/09 15:53:50;;;;;;;3.37;3.17;;;;;;;;;;6312570;28;20183;-76
2022/01/09 15:56:54;;;;;;;4.33;3.47;;;;;;;;;;6313673;28;20255;-76
2022/01/09 16:00:00;;;;;;;3.63;3.30;;;;;;;;;;6313084;28;20278;-76
2022/01/09 16:03:04;;;;;;;4.10;3.80;;;;;;;;;;6312221;28;20234;-76
2022/01/09 16:06:09;;;;;;;8.33;4.57;;;;;;;;;;6312503;28;20280;-76
2022/01/09 16:09:15;;;;;;;4.23;3.80;;;;;;;;;;6312031;28;20407;-76
2022/01/09 16:12:19;;;;;;;4.37;3.90;;;;;;;;;;6311956;28;20436;-77
2022/01/09 16:15:24;;;;;;;4.07;3.70;;;;;;;;;;6310584;28;20190;-76
2022/01/09 16:18:29;;;;;;;8.17;3.63;;;;;;;;;;6312916;28;20211;-76
2022/01/09 16:21:33;;;;;;;4.73;4.33;;;;;;;;;;6311534;28;20230;-76
2022/01/09 16:24:37;;;;;;;5.87;4.17;;;;;;;;;;6311609;28;20187;-77
2022/01/09 16:27:42;;;;;;;4.87;3.33;;;;;;;;;;6311164;28;20255;-76
2022/01/09 16:30:48;;;;;;;5.60;3.57;;;;;;;;;;6310886;28;20279;-76
2022/01/09 16:33:52;;;;;;;2.57;2.50;;;;;;;;;;6312124;28;20231;-76
2022/01/09 16:36:57;;;;;;;3.40;3.30;;;;;;;;;;6311012;28;20233;-76
2022/01/09 16:40:01;;;;;;;3.50;3.20;;;;;;;;;;6311591;28;20259;-76
2022/01/09 16:43:08;;;;;;;3.20;2.97;;;;;;;;;;6311746;28;20237;-76
2022/01/09 16:46:15;;;;;;;5.30;2.70;;;;;;;;;;6311840;28;20233;-76
2022/01/09 16:49:19;;;;;;;4.17;2.93;;;;;;;;;;6311732;28;20190;-76
2022/01/09 16:52:24;;;;;;;3.13;2.93;;;;;;;;;;6311431;28;20226;-76
2022/01/09 16:55:29;;;;;;;2.73;2.63;;;;;;;;;;6311781;28;20271;-76
2022/01/09 16:58:33;;;;;;;3.73;2.77;;;;;;;;;;6311786;28;20201;-76
2022/01/09 17:01:40;;;;;;;3.03;2.90;;;;;;;;;;6310862;28;20512;-76
2022/01/09 17:04:44;;;;;;;3.13;2.87;;;;;;;;;;6311911;28;20187;-77
2022/01/09 17:07:49;;;;;;;2.37;2.27;;;;;;;;;;6311409;28;20291;-76
2022/01/09 17:10:53;;;;;;;3.10;2.80;;;;;;;;;;6311288;28;20240;-76
2022/01/09 17:13:58;;;;;;;3.00;2.80;;;;;;;;;;6311778;28;20187;-76
2022/01/09 17:17:04;;;;;;;2.87;2.77;;;;;;;;;;6310827;28;20292;-76
2022/01/09 17:20:11;;;;;;;2.87;2.73;;;;;;;;;;6311540;28;20217;-76
2022/01/09 17:23:20;;;;;;;2.60;2.50;;;;;;;;;;6310714;28;20192;-76
2022/01/09 17:26:24;;;;;;;2.97;2.87;;;;;;;;;;6312931;28;20228;-77
2022/01/09 17:29:29;;;;;;;3.20;2.90;;;;;;;;;;6316717;28;20263;-76
2022/01/09 17:32:35;;;;;;;2.70;2.60;;;;;;;;;;6315612;28;20237;-76
2022/01/09 17:35:39;;;;;;;3.77;2.87;;;;;;;;;;6314841;28;20275;-76
2022/01/09 17:38:43;;;;;;;3.10;2.73;;;;;;;;;;6315274;28;20484;-76
2022/01/09 17:41:47;;;;;;;2.90;2.70;;;;;;;;;;6315143;28;20495;-76
2022/01/09 17:44:51;;;;;;;3.20;2.97;;;;;;;;;;6316272;28;20194;-77
2022/01/09 17:47:57;;;;;;;3.07;2.73;;;;;;;;;;6315663;28;20232;-76
2022/01/09 17:51:02;;;;;;;2.60;2.50;;;;;;;;;;6315372;28;20303;-76
2022/01/09 17:54:06;;;;;;;2.87;2.73;;;;;;;;;;6316437;28;20431;-76
2022/01/09 17:57:11;;;;;;;3.40;3.20;;;;;;;;;;6315716;28;20257;-76
2022/01/09 18:00:16;;;;;;;3.23;2.93;;;;;;;;;;6314141;28;20572;-77
2022/01/09 18:03:23;;;;;;;2.90;2.80;;;;;;;;;;6314926;28;20204;-76
2022/01/09 18:06:28;;;;;;;3.50;3.13;;;;;;;;;;6315181;28;20230;-76
2022/01/09 18:09:32;;;;;;;3.20;3.00;;;;;;;;;;6315646;28;20197;-76
2022/01/09 18:12:36;;;;;;;3.37;3.17;;;;;;;;;;6314792;28;20324;-76
2022/01/09 18:15:40;;;;;;;3.40;3.20;;;;;;;;;;6313968;28;20291;-76
2022/01/09 18:18:46;;;;;;;3.07;2.97;;;;;;;;;;6315371;28;20192;-76
2022/01/09 18:21:51;;;;;;;4.23;3.33;;;;;;;;;;6314762;28;20237;-76
2022/01/09 18:24:55;;;;;;;3.53;3.20;;;;;;;;;;6314295;28;20217;-78
2022/01/09 18:27:59;;;;;;;3.90;3.60;;;;;;;;;;6315545;28;20253;-77
2022/01/09 18:31:05;;;;;;;4.47;3.63;;;;;;;;;;6314710;28;20233;-76
2022/01/09 18:34:14;;;;;;;2.87;2.77;;;;;;;;;;6313871;28;20202;-76
2022/01/09 18:37:18;;;;;;;3.60;3.30;;;;;;;;;;6313413;28;20534;-76